Aviation Digital Data Service (ADDS)

Output produced by METARs form (1532 UTC 20 March 2019)
found at http://www.aviationweather.gov/metar/data/
 
Forecast for: GLRB (ROBERTS INTL/MON, LR)
Text: TAF GLRB 200400Z 2006/2112 22010KT 9999 BKN018
Forecast period: 0600 UTC 20 March 2019 to 1200 UTC 21 March 2019
Forecast type: FROM: standard forecast or significant change
Winds: from the SW (220 degrees) at 12 MPH (10 knots; 5.1 m/s)
Visibility: 6 or more miles 10+ km)
Ceiling: 1800 feet AGL
Clouds: broken clouds at 1800 feet AGL
Weather: no significant weather forecast for this period
Text: BECMG 2006/2008 06003KT 4000 BR SCT004 SCT010
Forecast period: 0600 UTC 20 March 2019 to 1200 UTC 21 March 2019
Forecast type: BECOMING: Conditions expected to become as follows by 0800 UTC 20 March 2019
Winds: from the ENE (60 degrees) at 3 MPH (3 knots; 1.5 m/s)
Visibility: 2.49 miles (4.01 km)
Ceiling: at least 12,000 feet AGL
Clouds: scattered clouds at 400 feet AGL
scattered clouds at 1000 feet AGL
Weather: BR  (mist)
Text: TEMPO 2012/2016 24012KT 9999 SCT024
Forecast period: 1200 to 1600 UTC 20 March 2019
Forecast type: TEMPORARY: The following changes expected for less than half the time period
Winds: from the WSW (240 degrees) at 14 MPH (12 knots; 6.2 m/s)
Visibility: 6 or more miles 10+ km)
Ceiling: at least 12,000 feet AGL
Clouds: scattered clouds at 2400 feet AGL
Weather: no significant weather forecast for this period